Cape Lisburne Lrrs Airport
PALU : rendu visible

Aérodrome :











RETROUVEZ-NOUS SUR...

 
LOGIN :

S'inscrire | Disclaimer

   EN    FR    IT 

 









Légende :    VFR   VFR Marginal   IFR   IFR Intensif   IFR Très Intensif
Visi : 
Plafond : 
>= 8 km
>= 3000ft
5 à 8 km
1000 à 3000 ft
1500m à 5 km
500 à 1000 ft
800 à 1500m
200 à 500 ft
< 800m
< 200 ft
Symboles :   Orages  Brouillard  Fortes neiges  Fortes précipitations  Vent > 20 kt






- Altitude de l'aérodrome : 16 ft
- Code IATA : LUR


PALU - Cape Lisburne Lrrs

DERNIER METAR :
  • 061113Z AUTO 03001KT 3SM BR OVC004 M02/M02 A3004 RMK AO2 SLP171

METARs EXPIRÉS :
  • 061055Z AUTO 03001KT 2 1/2SM BR OVC003 M02/M02 A3004 RMK AO2 SHRAB0810E0957DZB1002E1006 SLP171 T10161016
  • 061013Z AUTO 02003KT 1 1/2SM BR OVC003 M01/M01 A3004 RMK AO2 SLP171
  • 060955Z AUTO 02004KT 1/2SM -SHRA FZFG OVC003 M01/M01 A3004 RMK AO2 SHRAB0810DZB0946E0949 SLP171 P0000 T10121011
  • 060933Z AUTO 03003KT 1/2SM -SHRA FZFG OVC003 M01/M01 A3004 RMK AO2 SLP171
  • 060913Z AUTO 02003KT 1/4SM -SHRA FG OVC002 M01/M01 A3004 RMK AO2 SLP171
  • 060855Z AUTO 01005KT 1SM -SHRA BR OVC002 M01/M01 A3003 RMK AO2 SHRAB0810DZB0821E0822 SLP170 P0000 60000 T10101008 400051014 54001
  • 060833Z AUTO 01005KT 1 1/4SM -SHRA BR OVC002 M01/M01 A3003 RMK AO2 SLP170

Prévision TAF périmée.
FIR PAZA / Amérique du Nord



MET'MAP, la Météo Aéronautique d'un coup d'oeil ! - Copyright ORBIFLY Décembre 2007 - Disclaimer

ORBIFLY MET'MAP TEAM :

Programmation & Développement : Alexandra Zaïnal
Sur une idée originale de : Baudouin d'Aumeries
Assistance à la programmation : Marc-Olivier Méhu
Soutien technique & logistique : Manuel Goepfert

Contact : metmap@orbifly.com




SOURCES & CREDITS :

   NOAA       Earth
Advisory